Darstellungsparameter: Aktuell verwendete Einstellungen:
Skalierung der Graphiken ... ?
xyx+y,   Skalierungsfaktor:      Skalierung: Modus: x, Faktor: 1
Darstellungszeitraum ... ?
Vom - - bis: - -   Zeitraum: 20.04.2016 - 19.05.2016
Min/Max/Avg-Anzeige ... ?
Zeige MMA aktuell
Zeige MMA Monat
Zeige MMA alles
Zeige --A aktuell
Zeige --A Monat
Zeige --A alles
Keine MMA-Anzeige
MMA:
Average (ber die Originaldaten)
MMA-Basis: 20.04.2016 - 19.05.2016
Quicknavigation für Darstellung... ?
Tage:      1T, 2T, 3T, 5T -1T -2T -3T -5T +1T +2T +3T +5T
Wochen: 1W, 2W, 3W -1W -2W -3W +1W +2W +3W
Monate: 1M, 3M, 6M -1M -3M -6M +1M +3M +6M
Jahre:    1J, 3J, 5J, 10J -1J -3J -5J -10J +1J +3J +5J +10J
Nutze für die Darstellung ... ?
Originaldaten oder ...
Mittelwerte Minima Maxima auf...
Stundenbasis Tagesbasis Wochenbasis
Monatsbasis Jahresbasis      Datenbasis: Mittelwerte auf Stundenbasis
Darstellen als:
Statistik (Auto) Statistik J:M      Darstellung:
Zur Graphik,    zurück zur Übersicht aller Sensoren.
 
Tabellarische Datenbersicht: ?
 
Sensor: Nr:Datum:Temp:Abs-Feuchte:Windchill:Wind:
Aussen-T/F 1 20-04-2016 00:00:00 5.24167 C 5.95 g/m*3 5.24 C 0.53333 km/h
2 20-04-2016 01:00:00 4.74167 C 5.97 g/m*3 4.74 C 0 km/h
3 20-04-2016 02:00:00 5.475 C 6.22 g/m*3 5.48 C 1.46667 km/h
4 20-04-2016 03:00:00 5.39167 C 5.97 g/m*3 5.39 C 2.8 km/h
5 20-04-2016 04:00:00 4.48333 C 5.7 g/m*3 4.48 C 1.86667 km/h
6 20-04-2016 05:00:00 3.225 C 5.4 g/m*3 3.23 C 0 km/h
7 20-04-2016 06:00:00 2.35833 C 5.2 g/m*3 2.36 C 0 km/h
8 20-04-2016 07:00:00 2.16667 C 5.24 g/m*3 2.17 C 0 km/h
9 20-04-2016 08:00:00 2.93333 C 5.56 g/m*3 2.93 C 0 km/h
10 20-04-2016 09:00:00 4.36667 C 6.04 g/m*3 4.37 C 1.74167 km/h
11 20-04-2016 10:00:00 7.80833 C 6.32 g/m*3 6.99 C 5.88333 km/h
12 20-04-2016 11:00:00 10.03333 C 6.11 g/m*3 9.09 C 7.8 km/h
13 20-04-2016 12:00:00 11.30833 C 6 g/m*3 11.31 C 10.09167 km/h
14 20-04-2016 13:00:00 12.55 C 5.54 g/m*3 12.55 C 10.20833 km/h
15 20-04-2016 14:00:00 13.95 C 4.88 g/m*3 13.95 C 11.01667 km/h
16 20-04-2016 15:00:00 15.35833 C 4.48 g/m*3 15.36 C 12.09167 km/h
17 20-04-2016 16:00:00 16.90833 C 4.52 g/m*3 16.91 C 9.14167 km/h
18 20-04-2016 17:00:00 17.35 C 4.37 g/m*3 17.35 C 12.36667 km/h
19 20-04-2016 18:00:00 17.49167 C 4.37 g/m*3 17.49 C 11.29167 km/h
20 20-04-2016 19:00:00 17.05 C 4.64 g/m*3 17.05 C 6.03333 km/h
21 20-04-2016 20:00:00 13.2 C 5.91 g/m*3 13.2 C 4.26667 km/h
22 20-04-2016 21:00:00 10.3 C 5.72 g/m*3 10.3 C 4.8 km/h
23 20-04-2016 22:00:00 8.875 C 5.84 g/m*3 8.88 C 2.26667 km/h
24 20-04-2016 23:00:00 7.175 C 5.61 g/m*3 7.18 C 0 km/h
25 21-04-2016 00:00:00 6.3 C 5.61 g/m*3 6.3 C 0 km/h
Sensor: Nr:Datum:Temp:Abs-Feuchte:Windchill:Wind:
Aussen-T/F 26 21-04-2016 01:00:00 5.425 C 5.51 g/m*3 5.43 C 0.13333 km/h
27 21-04-2016 02:00:00 4.76667 C 5.49 g/m*3 4.77 C 0.53333 km/h
28 21-04-2016 03:00:00 4.04167 C 5.36 g/m*3 4.04 C 0 km/h
29 21-04-2016 04:00:00 3.38333 C 5.3 g/m*3 3.38 C 0.13333 km/h
30 21-04-2016 05:00:00 2.675 C 5.18 g/m*3 2.68 C 0 km/h
31 21-04-2016 06:00:00 2.23333 C 5.11 g/m*3 2.23 C 0 km/h
32 21-04-2016 07:00:00 2.4 C 5.24 g/m*3 2.4 C 0 km/h
33 21-04-2016 08:00:00 3 C 5.51 g/m*3 3 C 0 km/h
34 21-04-2016 09:00:00 4.90833 C 6.15 g/m*3 4.91 C 0.4 km/h
35 21-04-2016 10:00:00 8.80833 C 6.87 g/m*3 8.81 C 1.46667 km/h
36 21-04-2016 11:00:00 13.125 C 6.76 g/m*3 13.13 C 6.575 km/h
37 21-04-2016 12:00:00 15.85833 C 6.28 g/m*3 15.86 C 11.96667 km/h
38 21-04-2016 13:00:00 17.35 C 6.46 g/m*3 17.35 C 9 km/h
39 21-04-2016 14:00:00 18.675 C 6.39 g/m*3 18.68 C 7.925 km/h
40 21-04-2016 15:00:00 20.06667 C 5.97 g/m*3 20.07 C 7.79167 km/h
41 21-04-2016 16:00:00 21.53333 C 6 g/m*3 21.53 C 8.60833 km/h
42 21-04-2016 17:00:00 22.48333 C 6.05 g/m*3 22.48 C 7.94167 km/h
43 21-04-2016 18:00:00 22.81667 C 6.27 g/m*3 22.82 C 5.75833 km/h
44 21-04-2016 19:00:00 20.74167 C 6.98 g/m*3 20.74 C 4.80833 km/h
45 21-04-2016 20:00:00 16.025 C 7.13 g/m*3 16.02 C 5.73333 km/h
46 21-04-2016 21:00:00 14.08333 C 7.06 g/m*3 14.08 C 2.53333 km/h
47 21-04-2016 22:00:00 12.475 C 7.03 g/m*3 12.48 C 1.73333 km/h
48 21-04-2016 23:00:00 11.2 C 7.1 g/m*3 11.2 C 0.53333 km/h
49 22-04-2016 00:00:00 10.49167 C 7.31 g/m*3 10.49 C 0.8 km/h
50 22-04-2016 01:00:00 9.75 C 7.34 g/m*3 9.75 C 0.4 km/h
Sensor: Nr:Datum:Temp:Abs-Feuchte:Windchill:Wind:
Aussen-T/F 51 22-04-2016 02:00:00 10.66667 C 7.54 g/m*3 10.67 C 0.93333 km/h
52 22-04-2016 03:00:00 10.65833 C 7.61 g/m*3 10.66 C 0.8 km/h
53 22-04-2016 04:00:00 10.31667 C 7.4 g/m*3 10.32 C 1.46667 km/h
54 22-04-2016 05:00:00 9.85833 C 7.29 g/m*3 9.86 C 1.06667 km/h
55 22-04-2016 06:00:00 9.95833 C 7.07 g/m*3 9.96 C 2.66667 km/h
56 22-04-2016 07:00:00 9.575 C 7.12 g/m*3 9.57 C 0 km/h
57 22-04-2016 08:00:00 10.25 C 7.09 g/m*3 10.25 C 0.66667 km/h
58 22-04-2016 09:00:00 11.2 C 7.37 g/m*3 11.2 C 2.93333 km/h
59 22-04-2016 10:00:00 12.49167 C 7.23 g/m*3 12.49 C 6.15833 km/h
60 22-04-2016 11:00:00 13.60833 C 6.68 g/m*3 13.61 C 10.35 km/h
61 22-04-2016 12:00:00 14.33333 C 6.54 g/m*3 14.33 C 9.95 km/h
62 22-04-2016 13:00:00 15.15833 C 6.28 g/m*3 15.16 C 9.425 km/h
63 22-04-2016 14:00:00 15.825 C 6.08 g/m*3 15.83 C 6.425 km/h
64 22-04-2016 15:00:00 17.11667 C 6.19 g/m*3 17.12 C 6.84167 km/h
65 22-04-2016 16:00:00 18.58333 C 6.8 g/m*3 18.58 C 7.375 km/h
66 22-04-2016 17:00:00 19.13333 C 6.87 g/m*3 19.13 C 9.80833 km/h
67 22-04-2016 18:00:00 17.76667 C 6.43 g/m*3 17.77 C 10.09167 km/h
68 22-04-2016 19:00:00 16.08333 C 6.52 g/m*3 16.08 C 8.19167 km/h
69 22-04-2016 20:00:00 14.875 C 6.79 g/m*3 14.88 C 7.65 km/h
70 22-04-2016 21:00:00 13.975 C 6.75 g/m*3 13.98 C 4.69167 km/h
71 22-04-2016 22:00:00 12.71667 C 7.16 g/m*3 12.72 C 0.4 km/h
72 22-04-2016 23:00:00 11.85 C 7.16 g/m*3 11.85 C 0.4 km/h
73 23-04-2016 00:00:00 11.41667 C 7.14 g/m*3 11.42 C 0.4 km/h
74 23-04-2016 01:00:00 10.83333 C 7.24 g/m*3 10.83 C 1.2 km/h
75 23-04-2016 02:00:00 9.9 C 7.42 g/m*3 9.9 C 3.46667 km/h
Sensor: Nr:Datum:Temp:Abs-Feuchte:Windchill:Wind:
Aussen-T/F 76 23-04-2016 03:00:00 9.09167 C 7.55 g/m*3 9.09 C 2.8 km/h
77 23-04-2016 04:00:00 8.4 C 7.59 g/m*3 8.4 C 3.86667 km/h
78 23-04-2016 05:00:00 7.825 C 7.49 g/m*3 7.83 C 3.20833 km/h
79 23-04-2016 06:00:00 7.50833 C 7.38 g/m*3 7.51 C 2.68333 km/h
80 23-04-2016 07:00:00 7.15 C 7.11 g/m*3 7.15 C 4.81667 km/h
81 23-04-2016 08:00:00 6.63333 C 6.86 g/m*3 5.86 C 5.21667 km/h
82 23-04-2016 09:00:00 6.33333 C 6.76 g/m*3 4.55 C 8.625 km/h
83 23-04-2016 10:00:00 6.3 C 6.81 g/m*3 4.48 C 8.75 km/h
84 23-04-2016 11:00:00 6.4 C 6.73 g/m*3 4.31 C 10.1 km/h
85 23-04-2016 12:00:00 6.7 C 6.64 g/m*3 4.64 C 10.225 km/h
86 23-04-2016 13:00:00 7.325 C 6.33 g/m*3 5.45 C 9.94167 km/h
87 23-04-2016 14:00:00 8.2 C 6.13 g/m*3 6.16 C 11.80833 km/h
88 23-04-2016 15:00:00 9.20833 C 5.38 g/m*3 6.85 C 15.7 km/h
89 23-04-2016 16:00:00 8.80833 C 5.19 g/m*3 6.68 C 13.3 km/h
90 23-04-2016 17:00:00 9.90833 C 5.34 g/m*3 8.42 C 10.63333 km/h
91 23-04-2016 18:00:00 10.13333 C 4.87 g/m*3 8.33 C 13.03333 km/h
92 23-04-2016 19:00:00 8.325 C 5.16 g/m*3 5.92 C 14.49167 km/h
93 23-04-2016 20:00:00 7.125 C 5.46 g/m*3 5.26 C 9.675 km/h
94 23-04-2016 21:00:00 5.81667 C 5.67 g/m*3 5.82 C 2.4 km/h
95 23-04-2016 22:00:00 5.18333 C 5.71 g/m*3 5.18 C 2.4 km/h
96 23-04-2016 23:00:00 4.66667 C 5.32 g/m*3 4.67 C 3.34167 km/h
97 24-04-2016 00:00:00 4.7 C 5.18 g/m*3 4.7 C 3.20833 km/h
98 24-04-2016 01:00:00 4.80833 C 5.23 g/m*3 3.5 C 6.01667 km/h
99 24-04-2016 02:00:00 4.475 C 5.21 g/m*3 4.47 C 4.28333 km/h
100 24-04-2016 03:00:00 4.08333 C 5.26 g/m*3 4.08 C 1.74167 km/h
Sensor: Nr:Datum:Temp:Abs-Feuchte:Windchill:Wind:
Aussen-T/F 101 24-04-2016 04:00:00 3.89167 C 5.23 g/m*3 3.89 C 1.33333 km/h
102 24-04-2016 05:00:00 2.93333 C 5.08 g/m*3 2.93 C 2.4 km/h
103 24-04-2016 06:00:00 2.66667 C 5.14 g/m*3 2.67 C 1.86667 km/h
104 24-04-2016 07:00:00 3.025 C 5.37 g/m*3 3.03 C 0 km/h
105 24-04-2016 08:00:00 3.85833 C 5.53 g/m*3 3.86 C 3.2 km/h
106 24-04-2016 09:00:00 4.74167 C 5.48 g/m*3 2.89 C 7.79167 km/h
107 24-04-2016 10:00:00 5.825 C 5.3 g/m*3 3.36 C 11.425 km/h
108 24-04-2016 11:00:00 6.06667 C 5.48 g/m*3 4.06 C 9.40833 km/h
109 24-04-2016 12:00:00 6.75833 C 5.36 g/m*3 4.72 C 10.20833 km/h
110 24-04-2016 13:00:00 5.40833 C 5.77 g/m*3 4.32 C 5.625 km/h
111 24-04-2016 14:00:00 6.825 C 5.86 g/m*3 4.85 C 9.925 km/h
112 24-04-2016 15:00:00 8.04167 C 5.66 g/m*3 6.18 C 10.625 km/h
113 24-04-2016 16:00:00 8.95 C 5.32 g/m*3 6.47 C 16.23333 km/h
114 24-04-2016 17:00:00 5.875 C 5.63 g/m*3 3.03 C 13.69167 km/h
115 24-04-2016 18:00:00 8.85 C 5.78 g/m*3 7.27 C 9.95833 km/h
116 24-04-2016 19:00:00 7.75 C 5.27 g/m*3 5.62 C 11.825 km/h
117 24-04-2016 20:00:00 5.73333 C 5.13 g/m*3 3.33 C 11.025 km/h
118 24-04-2016 21:00:00 4.26667 C 5.39 g/m*3 4.27 C 2 km/h
119 24-04-2016 22:00:00 3.275 C 5.4 g/m*3 3.28 C 0.53333 km/h
120 24-04-2016 23:00:00 3.05833 C 5.34 g/m*3 3.06 C 4.55833 km/h
121 25-04-2016 00:00:00 2.28333 C 5.23 g/m*3 2.28 C 1.06667 km/h
122 25-04-2016 01:00:00 2.35833 C 5.35 g/m*3 2.36 C 0.53333 km/h
123 25-04-2016 02:00:00 2.03333 C 5.24 g/m*3 2.03 C 1.06667 km/h
124 25-04-2016 03:00:00 1.33333 C 5 g/m*3 1.33 C 0.8 km/h
125 25-04-2016 04:00:00 1.025 C 4.94 g/m*3 1.02 C 0.26667 km/h
Sensor: Nr:Datum:Temp:Abs-Feuchte:Windchill:Wind:
Aussen-T/F 126 25-04-2016 05:00:00 1.10833 C 4.97 g/m*3 1.11 C 1.2 km/h
127 25-04-2016 06:00:00 1.225 C 5 g/m*3 1.23 C 4.68333 km/h
128 25-04-2016 07:00:00 1.64167 C 5.01 g/m*3 -0.95 C 8.48333 km/h
129 25-04-2016 08:00:00 2.75 C 5.22 g/m*3 -0.05 C 10.09167 km/h
130 25-04-2016 09:00:00 4.225 C 5.55 g/m*3 1.57 C 10.75833 km/h
131 25-04-2016 10:00:00 5.525 C 5.68 g/m*3 2.87 C 12.1 km/h
132 25-04-2016 11:00:00 6.85 C 5.59 g/m*3 4.62 C 11.3 km/h
133 25-04-2016 12:00:00 7.59167 C 5.63 g/m*3 5.15 C 13.56667 km/h
134 25-04-2016 13:00:00 7.45 C 5.77 g/m*3 4.57 C 16.5 km/h
135 25-04-2016 14:00:00 7.46667 C 5.9 g/m*3 4.64 C 16.1 km/h
136 25-04-2016 15:00:00 7.74167 C 6.02 g/m*3 4.92 C 16.63333 km/h
137 25-04-2016 16:00:00 7.01667 C 6.33 g/m*3 5.08 C 9.95 km/h
138 25-04-2016 17:00:00 6.86667 C 6.38 g/m*3 4.18 C 14.1 km/h
139 25-04-2016 18:00:00 6.79167 C 6.38 g/m*3 4.3 C 12.76667 km/h
140 25-04-2016 19:00:00 6.44167 C 6.51 g/m*3 4.16 C 11.15833 km/h
141 25-04-2016 20:00:00 6.13333 C 6.43 g/m*3 3.34 C 13.7 km/h
142 25-04-2016 21:00:00 6.23333 C 6.53 g/m*3 3.45 C 13.81667 km/h
143 25-04-2016 22:00:00 6.21667 C 6.6 g/m*3 3.64 C 12.5 km/h
144 25-04-2016 23:00:00 4.88333 C 6.16 g/m*3 2.47 C 10.20833 km/h
145 26-04-2016 00:00:00 3.78333 C 5.85 g/m*3 3.78 C 0.4 km/h
146 26-04-2016 01:00:00 3.7 C 5.88 g/m*3 3.7 C 0.26667 km/h
147 26-04-2016 02:00:00 3.70833 C 5.92 g/m*3 3.71 C 0.26667 km/h
148 26-04-2016 03:00:00 3.1 C 5.63 g/m*3 0.81 C 8.31667 km/h
149 26-04-2016 04:00:00 2.30833 C 5.34 g/m*3 2.31 C 0.4 km/h
150 26-04-2016 05:00:00 2.15833 C 5.34 g/m*3 2.16 C 1.2 km/h
Sensor: Nr:Datum:Temp:Abs-Feuchte:Windchill:Wind:
Aussen-T/F 151 26-04-2016 06:00:00 1.88333 C 5.24 g/m*3 1.88 C 2.13333 km/h
152 26-04-2016 07:00:00 1.98333 C 5.3 g/m*3 1.98 C 2.675 km/h
153 26-04-2016 08:00:00 2.2 C 5.37 g/m*3 2.2 C 4.68333 km/h
154 26-04-2016 09:00:00 3.66667 C 5.5 g/m*3 0.62 C 12.1 km/h
155 26-04-2016 10:00:00 5.1 C 5.28 g/m*3 1.75 C 15.83333 km/h
156 26-04-2016 11:00:00 5.90833 C 5.16 g/m*3 2.3 C 19.3 km/h
157 26-04-2016 12:00:00 6.78333 C 5.04 g/m*3 3.35 C 19.7 km/h
158 26-04-2016 13:00:00 7.21667 C 5.14 g/m*3 3.93 C 19.43333 km/h
159 26-04-2016 14:00:00 7.45833 C 5.39 g/m*3 4.91 C 14.1 km/h
160 26-04-2016 15:00:00 5.99167 C 5.66 g/m*3 3.01 C 14.75833 km/h
161 26-04-2016 16:00:00 5.65 C 6.3 g/m*3 3.39 C 10.225 km/h
162 26-04-2016 17:00:00 7.43333 C 5.95 g/m*3 4.43 C 17.43333 km/h
163 26-04-2016 18:00:00 6.93333 C 5.58 g/m*3 4.63 C 11.81667 km/h
164 26-04-2016 19:00:00 6.5 C 5.43 g/m*3 4.55 C 9.54167 km/h
165 26-04-2016 20:00:00 5.58333 C 5.16 g/m*3 2.79 C 13.01667 km/h
166 26-04-2016 21:00:00 4.31667 C 5.11 g/m*3 2.75 C 6.55833 km/h
167 26-04-2016 22:00:00 3.625 C 5.07 g/m*3 2.33 C 5.5 km/h
168 26-04-2016 23:00:00 3.25 C 5.02 g/m*3 0.74 C 9.26667 km/h
169 27-04-2016 00:00:00 3.23333 C 4.99 g/m*3 0.18 C 11.7 km/h
170 27-04-2016 01:00:00 3.41667 C 5.02 g/m*3 0.19 C 12.75 km/h
171 27-04-2016 02:00:00 3.5 C 5.09 g/m*3 0.15 C 13.55833 km/h
172 27-04-2016 03:00:00 3.68333 C 5.09 g/m*3 0.64 C 12.1 km/h
173 27-04-2016 04:00:00 3.675 C 5.11 g/m*3 0.55 C 12.5 km/h
174 27-04-2016 05:00:00 3.78333 C 5.09 g/m*3 0.38 C 14.225 km/h
175 27-04-2016 06:00:00 3.825 C 5.03 g/m*3 0.03 C 16.76667 km/h
Sensor: Nr:Datum:Temp:Abs-Feuchte:Windchill:Wind:
Aussen-T/F 176 27-04-2016 07:00:00 3.89167 C 5.06 g/m*3 0.27 C 15.7 km/h
177 27-04-2016 08:00:00 4.7 C 5.2 g/m*3 0.68 C 20.1 km/h
178 27-04-2016 09:00:00 5.49167 C 5.36 g/m*3 1.89 C 18.375 km/h
179 27-04-2016 10:00:00 4.825 C 5.67 g/m*3 1.49 C 15.3 km/h
180 27-04-2016 11:00:00 5.18333 C 5.75 g/m*3 1.89 C 15.55833 km/h
181 27-04-2016 12:00:00 5.74167 C 5.93 g/m*3 2.41 C 16.76667 km/h
182 27-04-2016 13:00:00 6.9 C 6.13 g/m*3 3.82 C 17.04167 km/h
183 27-04-2016 14:00:00 7.35833 C 6.19 g/m*3 4.73 C 14.49167 km/h
184 27-04-2016 15:00:00 8.29167 C 6.07 g/m*3 5.21 C 20.1 km/h
185 27-04-2016 16:00:00 8.575 C 5.96 g/m*3 5.43 C 21.43333 km/h
186 27-04-2016 17:00:00 8.23333 C 5.87 g/m*3 5.7 C 15.29167 km/h
187 27-04-2016 18:00:00 9.09167 C 5.92 g/m*3 6.86 C 14.5 km/h
188 27-04-2016 19:00:00 8.13333 C 5.72 g/m*3 5.97 C 12.5 km/h
189 27-04-2016 20:00:00 6.85 C 5.45 g/m*3 4.99 C 9.39167 km/h
190 27-04-2016 21:00:00 5.375 C 5.51 g/m*3 5.38 C 1.6 km/h
191 27-04-2016 22:00:00 5.23333 C 5.69 g/m*3 3.62 C 7.23333 km/h
192 27-04-2016 23:00:00 4.8 C 5.6 g/m*3 3.53 C 5.89167 km/h
193 28-04-2016 00:00:00 3.96667 C 5.53 g/m*3 3.97 C 4.13333 km/h
194 28-04-2016 01:00:00 3.26667 C 5.33 g/m*3 2.03 C 5.20833 km/h
195 28-04-2016 02:00:00 2.73333 C 5.21 g/m*3 1.01 C 6.3 km/h
196 28-04-2016 03:00:00 2.05833 C 5.08 g/m*3 2.06 C 4.94167 km/h
197 28-04-2016 04:00:00 1.60833 C 4.96 g/m*3 1.61 C 3.6 km/h
198 28-04-2016 05:00:00 1.75833 C 5.03 g/m*3 1.76 C 4.94167 km/h
199 28-04-2016 06:00:00 1.79167 C 5.04 g/m*3 0.29 C 5.35 km/h
200 28-04-2016 07:00:00 2.43333 C 5.16 g/m*3 0.02 C 8.34167 km/h
Sensor: Nr:Datum:Temp:Abs-Feuchte:Windchill:Wind:
Aussen-T/F 201 28-04-2016 08:00:00 2.99167 C 5.26 g/m*3 0.3 C 9.81667 km/h
202 28-04-2016 09:00:00 3.91667 C 5.45 g/m*3 1.41 C 9.80833 km/h
203 28-04-2016 10:00:00 6.23333 C 5.82 g/m*3 5.01 C 6.44167 km/h
204 28-04-2016 11:00:00 8.375 C 5.51 g/m*3 7.38 C 6.84167 km/h
205 28-04-2016 12:00:00 9.30833 C 4.72 g/m*3 7.67 C 10.75833 km/h
206 28-04-2016 13:00:00 9.50833 C 4.83 g/m*3 7.42 C 14.1 km/h
207 28-04-2016 14:00:00 9.45 C 4.81 g/m*3 7.3 C 14.5 km/h
208 28-04-2016 15:00:00 11.85 C 4.56 g/m*3 11.85 C 12.63333 km/h
209 28-04-2016 16:00:00 13.50833 C 4.47 g/m*3 13.51 C 15.03333 km/h
210 28-04-2016 17:00:00 12.48333 C 4.78 g/m*3 12.48 C 11.69167 km/h
211 28-04-2016 18:00:00 13.29167 C 4.52 g/m*3 13.29 C 12.75833 km/h
212 28-04-2016 19:00:00 11.81667 C 4.83 g/m*3 11.82 C 10.09167 km/h
213 28-04-2016 20:00:00 8.575 C 5.52 g/m*3 8.57 C 2.80833 km/h
214 28-04-2016 21:00:00 7.16667 C 5.69 g/m*3 7.17 C 2.675 km/h
215 28-04-2016 22:00:00 6.375 C 5.83 g/m*3 6.38 C 0.93333 km/h
216 28-04-2016 23:00:00 5.13333 C 5.66 g/m*3 5.13 C 0 km/h
217 29-04-2016 00:00:00 4.29167 C 5.42 g/m*3 4.29 C 0 km/h
218 29-04-2016 01:00:00 3.14167 C 5.2 g/m*3 3.14 C 0 km/h
219 29-04-2016 02:00:00 2.10833 C 4.98 g/m*3 2.11 C 0 km/h
220 29-04-2016 03:00:00 1.65 C 4.92 g/m*3 1.65 C 0.26667 km/h
221 29-04-2016 04:00:00 1.55833 C 4.96 g/m*3 1.56 C 0 km/h
222 29-04-2016 05:00:00 1.63333 C 5.01 g/m*3 1.63 C 0.4 km/h
223 29-04-2016 06:00:00 1.93333 C 5.14 g/m*3 1.93 C 0.8 km/h
224 29-04-2016 07:00:00 2.84167 C 5.44 g/m*3 2.84 C 1.6 km/h
225 29-04-2016 08:00:00 4.25 C 5.71 g/m*3 4.25 C 0.93333 km/h
Sensor: Nr:Datum:Temp:Abs-Feuchte:Windchill:Wind:
Aussen-T/F 226 29-04-2016 09:00:00 5.95 C 5.92 g/m*3 5.95 C 1.6 km/h
227 29-04-2016 10:00:00 8.525 C 6.16 g/m*3 7.52 C 6.975 km/h
228 29-04-2016 11:00:00 11.25 C 5.29 g/m*3 11.25 C 16.76667 km/h
229 29-04-2016 12:00:00 11.85833 C 4.94 g/m*3 11.86 C 15.16667 km/h
230 29-04-2016 13:00:00 12.98333 C 4.93 g/m*3 12.98 C 15.7 km/h
231 29-04-2016 14:00:00 13.09167 C 5 g/m*3 13.09 C 13.025 km/h
232 29-04-2016 15:00:00 13.25 C 5.16 g/m*3 13.25 C 10.75833 km/h
233 29-04-2016 16:00:00 13.33333 C 5.16 g/m*3 13.33 C 8.2 km/h
234 29-04-2016 17:00:00 13.63333 C 5.28 g/m*3 13.63 C 10.06667 km/h
235 29-04-2016 18:00:00 14.98333 C 5.4 g/m*3 14.98 C 9.93333 km/h
236 29-04-2016 19:00:00 13.56667 C 5.5 g/m*3 13.57 C 6.58333 km/h
237 29-04-2016 20:00:00 10.86667 C 6.14 g/m*3 10.87 C 1.86667 km/h
238 29-04-2016 21:00:00 8.43333 C 6.08 g/m*3 8.43 C 2.4 km/h
239 29-04-2016 22:00:00 7.4 C 6.02 g/m*3 7.4 C 2.26667 km/h
240 29-04-2016 23:00:00 6.6 C 5.91 g/m*3 6.6 C 0 km/h
241 30-04-2016 00:00:00 6.325 C 5.97 g/m*3 6.33 C 0.66667 km/h
242 30-04-2016 01:00:00 5.88333 C 5.85 g/m*3 5.88 C 0 km/h
243 30-04-2016 02:00:00 5.15833 C 5.73 g/m*3 5.16 C 0 km/h
244 30-04-2016 03:00:00 4.55 C 5.66 g/m*3 4.55 C 0 km/h
245 30-04-2016 04:00:00 3.98333 C 5.57 g/m*3 3.98 C 0.13333 km/h
246 30-04-2016 05:00:00 3.48333 C 5.53 g/m*3 3.48 C 0.13333 km/h
247 30-04-2016 06:00:00 3.31667 C 5.56 g/m*3 3.32 C 0 km/h
248 30-04-2016 07:00:00 4.35833 C 5.93 g/m*3 4.36 C 0.8 km/h
249 30-04-2016 08:00:00 5.73333 C 6.21 g/m*3 5.73 C 1.6 km/h
250 30-04-2016 09:00:00 7.64167 C 6.51 g/m*3 7.64 C 3.88333 km/h
Sensor: Nr:Datum:Temp:Abs-Feuchte:Windchill:Wind:
Aussen-T/F 251 30-04-2016 10:00:00 9.51667 C 6.79 g/m*3 9.06 C 5.48333 km/h
252 30-04-2016 11:00:00 10.05833 C 7.12 g/m*3 8.98 C 8.46667 km/h
253 30-04-2016 12:00:00 11.075 C 7.48 g/m*3 11.08 C 6.98333 km/h
254 30-04-2016 13:00:00 11.29167 C 7.67 g/m*3 11.29 C 11.83333 km/h
255 30-04-2016 14:00:00 10.31667 C 7.75 g/m*3 9.08 C 9.56667 km/h
256 30-04-2016 15:00:00 9.64167 C 8.07 g/m*3 9.64 C 2.66667 km/h
257 30-04-2016 16:00:00 10.41667 C 8.26 g/m*3 9.68 C 7.11667 km/h
258 30-04-2016 17:00:00 10.25 C 7.83 g/m*3 9.01 C 9.55 km/h
259 30-04-2016 18:00:00 10.05833 C 7.34 g/m*3 8.28 C 12.75 km/h
260 30-04-2016 19:00:00 9.40833 C 7.13 g/m*3 7.79 C 10.76667 km/h
261 30-04-2016 20:00:00 8.94167 C 7.13 g/m*3 7.58 C 8.85833 km/h
262 30-04-2016 21:00:00 8.38333 C 7.22 g/m*3 7.39 C 6.84167 km/h
263 30-04-2016 22:00:00 7.73333 C 7.32 g/m*3 7.73 C 4.68333 km/h
264 30-04-2016 23:00:00 7.31667 C 7.33 g/m*3 6.59 C 5.35833 km/h
265 01-05-2016 00:00:00 7.15 C 7.15 g/m*3 6.07 C 6.43333 km/h
266 01-05-2016 01:00:00 7.05833 C 7.08 g/m*3 5.63 C 7.675 km/h
267 01-05-2016 02:00:00 6.775 C 7.09 g/m*3 6.78 C 2.8 km/h
268 01-05-2016 03:00:00 6.6 C 7.1 g/m*3 6.6 C 2.13333 km/h
269 01-05-2016 04:00:00 6.525 C 7.14 g/m*3 6.53 C 3.06667 km/h
270 01-05-2016 05:00:00 6.5 C 7.07 g/m*3 5.57 C 5.63333 km/h
271 01-05-2016 06:00:00 6.35 C 6.89 g/m*3 4.99 C 6.98333 km/h
272 01-05-2016 07:00:00 6.29167 C 6.79 g/m*3 4.96 C 6.84167 km/h
273 01-05-2016 08:00:00 6.38333 C 6.79 g/m*3 4.95 C 7.24167 km/h
274 01-05-2016 09:00:00 6.825 C 6.9 g/m*3 4.66 C 10.9 km/h
275 01-05-2016 10:00:00 7.475 C 7.07 g/m*3 5.33 C 11.55 km/h
Sensor: Nr:Datum:Temp:Abs-Feuchte:Windchill:Wind:
Aussen-T/F 276 01-05-2016 11:00:00 8.56667 C 7.49 g/m*3 6.81 C 10.625 km/h
277 01-05-2016 12:00:00 9.80833 C 7.96 g/m*3 8.07 C 12.1 km/h
278 01-05-2016 13:00:00 11.34167 C 8.33 g/m*3 11.34 C 11.43333 km/h
279 01-05-2016 14:00:00 13.28333 C 8.44 g/m*3 13.28 C 13.83333 km/h
280 01-05-2016 15:00:00 14.54167 C 8.39 g/m*3 14.54 C 14.1 km/h
281 01-05-2016 16:00:00 15.35 C 8.34 g/m*3 15.35 C 15.83333 km/h
282 01-05-2016 17:00:00 15.8 C 8.23 g/m*3 15.8 C 12.63333 km/h
283 01-05-2016 18:00:00 15.96667 C 8.19 g/m*3 15.97 C 12.1 km/h
284 01-05-2016 19:00:00 16.375 C 8.12 g/m*3 16.38 C 12.36667 km/h
285 01-05-2016 20:00:00 14.725 C 8.11 g/m*3 14.73 C 5.36667 km/h
286 01-05-2016 21:00:00 11.73333 C 8.17 g/m*3 11.73 C 3.88333 km/h
287 01-05-2016 22:00:00 11.28333 C 8.03 g/m*3 11.28 C 6.56667 km/h
288 01-05-2016 23:00:00 9.80833 C 7.86 g/m*3 9.81 C 3.475 km/h
289 02-05-2016 00:00:00 8.84167 C 7.66 g/m*3 8.84 C 3.6 km/h
290 02-05-2016 01:00:00 8.31667 C 7.48 g/m*3 8.32 C 2.4 km/h
291 02-05-2016 02:00:00 7.6 C 7.28 g/m*3 7.6 C 1.33333 km/h
292 02-05-2016 03:00:00 6.45833 C 6.82 g/m*3 6.46 C 0 km/h
293 02-05-2016 04:00:00 5.26667 C 6.44 g/m*3 5.27 C 0 km/h
294 02-05-2016 05:00:00 4.475 C 6.17 g/m*3 4.47 C 0 km/h
295 02-05-2016 06:00:00 4.00833 C 6.04 g/m*3 4.01 C 0 km/h
296 02-05-2016 07:00:00 4.44167 C 6.25 g/m*3 4.44 C 0.66667 km/h
297 02-05-2016 08:00:00 5.31667 C 6.66 g/m*3 5.32 C 1.6 km/h
298 02-05-2016 09:00:00 6.39167 C 7.17 g/m*3 6.39 C 0.53333 km/h
299 02-05-2016 10:00:00 8.675 C 8.27 g/m*3 8.68 C 0.13333 km/h
300 02-05-2016 11:00:00 12.30833 C 8.84 g/m*3 12.31 C 2.26667 km/h
Sensor: Nr:Datum:Temp:Abs-Feuchte:Windchill:Wind:
Aussen-T/F 301 02-05-2016 12:00:00 15.49167 C 7.97 g/m*3 15.49 C 7.93333 km/h
302 02-05-2016 13:00:00 17.08333 C 7.19 g/m*3 17.08 C 8.46667 km/h
303 02-05-2016 14:00:00 17.88333 C 7.05 g/m*3 17.88 C 6.28333 km/h
304 02-05-2016 15:00:00 19.69167 C 7.14 g/m*3 19.69 C 5.9 km/h
305 02-05-2016 16:00:00 21.55833 C 7.49 g/m*3 21.56 C 7.375 km/h
306 02-05-2016 17:00:00 22.55833 C 7.6 g/m*3 22.56 C 7.54167 km/h
307 02-05-2016 18:00:00 22.45833 C 7.22 g/m*3 22.46 C 6.16667 km/h
308 02-05-2016 19:00:00 20.54167 C 8.25 g/m*3 20.54 C 3.75 km/h
309 02-05-2016 20:00:00 15.08333 C 8.45 g/m*3 15.08 C 3.86667 km/h
310 02-05-2016 21:00:00 12.60833 C 8.12 g/m*3 12.61 C 0.93333 km/h
311 02-05-2016 22:00:00 11.45 C 7.82 g/m*3 11.45 C 1.86667 km/h
312 02-05-2016 23:00:00 11.025 C 8.07 g/m*3 11.03 C 2.53333 km/h
313 03-05-2016 00:00:00 9.81667 C 7.93 g/m*3 9.82 C 0 km/h
314 03-05-2016 01:00:00 9.2 C 7.87 g/m*3 9.2 C 0.26667 km/h
315 03-05-2016 02:00:00 8.725 C 7.75 g/m*3 8.73 C 1.33333 km/h
316 03-05-2016 03:00:00 8.425 C 7.71 g/m*3 8.43 C 1.6 km/h
317 03-05-2016 04:00:00 8.33333 C 7.69 g/m*3 8.33 C 2.13333 km/h
318 03-05-2016 05:00:00 8.19167 C 7.62 g/m*3 8.19 C 1.74167 km/h
319 03-05-2016 06:00:00 8.51667 C 7.74 g/m*3 8.52 C 1.74167 km/h
320 03-05-2016 07:00:00 9.15833 C 8.02 g/m*3 9.16 C 4.41667 km/h
321 03-05-2016 08:00:00 9.53333 C 8.37 g/m*3 9.53 C 4.69167 km/h
322 03-05-2016 09:00:00 9.51667 C 8.46 g/m*3 9.52 C 4.96667 km/h
323 03-05-2016 10:00:00 10.10833 C 8.54 g/m*3 9.26 C 7.39167 km/h
324 03-05-2016 11:00:00 11.44167 C 8.4 g/m*3 11.44 C 11.29167 km/h
325 03-05-2016 12:00:00 12.29167 C 7.97 g/m*3 12.29 C 10.61667 km/h
Sensor: Nr:Datum:Temp:Abs-Feuchte:Windchill:Wind:
Aussen-T/F 326 03-05-2016 13:00:00 12.94167 C 7.61 g/m*3 12.94 C 13.69167 km/h
327 03-05-2016 14:00:00 12.39167 C 7.27 g/m*3 12.39 C 11.43333 km/h
328 03-05-2016 15:00:00 12.85 C 7.54 g/m*3 12.85 C 10.06667 km/h
329 03-05-2016 16:00:00 13.81667 C 7.79 g/m*3 13.82 C 6.175 km/h
330 03-05-2016 17:00:00 16.71667 C 6.45 g/m*3 16.72 C 16.63333 km/h
331 03-05-2016 18:00:00 15.6 C 6 g/m*3 15.6 C 16.23333 km/h
332 03-05-2016 19:00:00 14.875 C 5.63 g/m*3 14.88 C 9.28333 km/h
333 03-05-2016 20:00:00 13.23333 C 6.09 g/m*3 13.23 C 4.69167 km/h
334 03-05-2016 21:00:00 10.28333 C 6.36 g/m*3 10.28 C 1.6 km/h
335 03-05-2016 22:00:00 8.64167 C 6.36 g/m*3 8.64 C 1.2 km/h
336 03-05-2016 23:00:00 7.9 C 6.32 g/m*3 7.9 C 1.73333 km/h
337 04-05-2016 00:00:00 6.375 C 6.14 g/m*3 6.38 C 0.53333 km/h
338 04-05-2016 01:00:00 5.08333 C 5.98 g/m*3 5.08 C 0.4 km/h
339 04-05-2016 02:00:00 4.46667 C 5.86 g/m*3 4.47 C 0.66667 km/h
340 04-05-2016 03:00:00 3.7 C 5.65 g/m*3 3.7 C 0.26667 km/h
341 04-05-2016 04:00:00 3.13333 C 5.52 g/m*3 3.13 C 0 km/h
342 04-05-2016 05:00:00 2.75 C 5.45 g/m*3 2.75 C 0.13333 km/h
343 04-05-2016 06:00:00 2.375 C 5.34 g/m*3 2.38 C 0 km/h
344 04-05-2016 07:00:00 2.75833 C 5.52 g/m*3 2.76 C 0 km/h
345 04-05-2016 08:00:00 3.71667 C 5.93 g/m*3 3.72 C 0.26667 km/h
346 04-05-2016 09:00:00 5.36667 C 6.52 g/m*3 5.37 C 0.13333 km/h
347 04-05-2016 10:00:00 8.26667 C 6.85 g/m*3 8.27 C 1.73333 km/h
348 04-05-2016 11:00:00 11.10833 C 6.13 g/m*3 11.11 C 5.35 km/h
349 04-05-2016 12:00:00 12.25 C 5.66 g/m*3 12.25 C 8.46667 km/h
350 04-05-2016 13:00:00 13.05833 C 5.58 g/m*3 13.06 C 6.96667 km/h
Sensor: Nr:Datum:Temp:Abs-Feuchte:Windchill:Wind:
Aussen-T/F 351 04-05-2016 14:00:00 14.15833 C 5.5 g/m*3 14.16 C 9.81667 km/h
352 04-05-2016 15:00:00 15.66667 C 5.23 g/m*3 15.67 C 8.6 km/h
353 04-05-2016 16:00:00 16.98333 C 5.11 g/m*3 16.98 C 7.78333 km/h
354 04-05-2016 17:00:00 17.36667 C 4.91 g/m*3 17.37 C 10.625 km/h
355 04-05-2016 18:00:00 16.60833 C 4.9 g/m*3 16.61 C 7.25833 km/h
356 04-05-2016 19:00:00 13.96667 C 6.42 g/m*3 13.97 C 1.06667 km/h
357 04-05-2016 20:00:00 12.45833 C 6.42 g/m*3 12.46 C 2.4 km/h
358 04-05-2016 21:00:00 10.25833 C 5.5 g/m*3 10.26 C 4.66667 km/h
359 04-05-2016 22:00:00 8.93333 C 5.34 g/m*3 8.93 C 3.33333 km/h
360 04-05-2016 23:00:00 7.6 C 5.51 g/m*3 7.6 C 1.06667 km/h
361 05-05-2016 00:00:00 5.84167 C 5.48 g/m*3 5.84 C 0.13333 km/h
362 05-05-2016 01:00:00 4.725 C 5.43 g/m*3 4.72 C 0 km/h
363 05-05-2016 02:00:00 4.04167 C 5.4 g/m*3 4.04 C 0 km/h
364 05-05-2016 03:00:00 3.475 C 5.34 g/m*3 3.48 C 0 km/h
365 05-05-2016 04:00:00 3.24167 C 5.34 g/m*3 3.24 C 0.4 km/h
366 05-05-2016 05:00:00 2.50833 C 5.18 g/m*3 2.51 C 0.4 km/h
367 05-05-2016 06:00:00 2.06667 C 5.08 g/m*3 2.07 C 0 km/h
368 05-05-2016 07:00:00 2.375 C 5.25 g/m*3 2.38 C 0 km/h
369 05-05-2016 08:00:00 3.54167 C 5.74 g/m*3 3.54 C 0 km/h
370 05-05-2016 09:00:00 7.19167 C 6.6 g/m*3 7.19 C 4.69167 km/h
371 05-05-2016 10:00:00 11.36667 C 6.71 g/m*3 11.37 C 10.75 km/h
372 05-05-2016 11:00:00 13.94167 C 6.78 g/m*3 13.94 C 12.35833 km/h
373 05-05-2016 12:00:00 15.46667 C 6.78 g/m*3 15.47 C 12.49167 km/h
374 05-05-2016 13:00:00 17.06667 C 6.77 g/m*3 17.07 C 14.5 km/h
375 05-05-2016 14:00:00 18.05833 C 7.06 g/m*3 18.06 C 14.36667 km/h
Sensor: Nr:Datum:Temp:Abs-Feuchte:Windchill:Wind:
Aussen-T/F 376 05-05-2016 15:00:00 19.54167 C 7.44 g/m*3 19.54 C 13.01667 km/h
377 05-05-2016 16:00:00 21.225 C 7.35 g/m*3 21.23 C 11.55833 km/h
378 05-05-2016 17:00:00 21.30833 C 7.34 g/m*3 21.31 C 13.025 km/h
379 05-05-2016 18:00:00 21.36667 C 7.53 g/m*3 21.37 C 12.63333 km/h
380 05-05-2016 19:00:00 20.69167 C 7.72 g/m*3 20.69 C 9.14167 km/h
381 05-05-2016 20:00:00 18.18333 C 8.51 g/m*3 18.18 C 2.13333 km/h
382 05-05-2016 21:00:00 14.64167 C 8.25 g/m*3 14.64 C 2.8 km/h
383 05-05-2016 22:00:00 12.45833 C 8.21 g/m*3 12.46 C 0.26667 km/h
384 05-05-2016 23:00:00 10.55833 C 7.84 g/m*3 10.56 C 0 km/h
385 06-05-2016 00:00:00 9.53333 C 7.73 g/m*3 9.53 C 0 km/h
386 06-05-2016 01:00:00 8.71667 C 7.6 g/m*3 8.72 C 0 km/h
387 06-05-2016 02:00:00 7.99167 C 7.4 g/m*3 7.99 C 0 km/h
388 06-05-2016 03:00:00 7.36667 C 7.28 g/m*3 7.37 C 0.26667 km/h
389 06-05-2016 04:00:00 7.225 C 7.29 g/m*3 7.23 C 0 km/h
390 06-05-2016 05:00:00 6.8 C 7.13 g/m*3 6.8 C 0.13333 km/h
391 06-05-2016 06:00:00 6.28333 C 6.93 g/m*3 6.28 C 0 km/h
392 06-05-2016 07:00:00 6.49167 C 7.1 g/m*3 6.49 C 0 km/h
393 06-05-2016 08:00:00 7.75833 C 7.79 g/m*3 7.76 C 0.53333 km/h
394 06-05-2016 09:00:00 9.99167 C 8.92 g/m*3 9.99 C 1.86667 km/h
395 06-05-2016 10:00:00 14.975 C 9.78 g/m*3 14.98 C 5.35 km/h
396 06-05-2016 11:00:00 18.08333 C 9.72 g/m*3 18.08 C 6.70833 km/h
397 06-05-2016 12:00:00 19.73333 C 9.61 g/m*3 19.73 C 7.375 km/h
398 06-05-2016 13:00:00 20.725 C 9.51 g/m*3 20.73 C 6.29167 km/h
399 06-05-2016 14:00:00 22.16667 C 9.5 g/m*3 22.17 C 8.61667 km/h
400 06-05-2016 15:00:00 23.91667 C 9.49 g/m*3 23.92 C 9.8 km/h
Sensor: Nr:Datum:Temp:Abs-Feuchte:Windchill:Wind:
Aussen-T/F 401 06-05-2016 16:00:00 25.50833 C 9.32 g/m*3 25.51 C 8.86667 km/h
402 06-05-2016 17:00:00 26.24167 C 9.01 g/m*3 26.24 C 9.00833 km/h
403 06-05-2016 18:00:00 26.01667 C 7.72 g/m*3 26.02 C 6.83333 km/h
404 06-05-2016 19:00:00 24.58333 C 8.34 g/m*3 24.58 C 4.54167 km/h
405 06-05-2016 20:00:00 20.025 C 9.27 g/m*3 20.02 C 1.73333 km/h
406 06-05-2016 21:00:00 16.86667 C 8.5 g/m*3 16.87 C 3.2 km/h
407 06-05-2016 22:00:00 16.6 C 8.56 g/m*3 16.6 C 3.2 km/h
408 06-05-2016 23:00:00 14.70833 C 8.89 g/m*3 14.71 C 0.13333 km/h
409 07-05-2016 00:00:00 12.225 C 8.59 g/m*3 12.23 C 0 km/h
410 07-05-2016 01:00:00 10.9 C 8.29 g/m*3 10.9 C 0 km/h
411 07-05-2016 02:00:00 9.84167 C 8.12 g/m*3 9.84 C 0 km/h
412 07-05-2016 03:00:00 9.06667 C 7.93 g/m*3 9.07 C 0 km/h
413 07-05-2016 04:00:00 8.5 C 7.81 g/m*3 8.5 C 0.13333 km/h
414 07-05-2016 05:00:00 7.95833 C 7.63 g/m*3 7.96 C 0 km/h
415 07-05-2016 06:00:00 7.48333 C 7.48 g/m*3 7.48 C 0 km/h
416 07-05-2016 07:00:00 7.75 C 7.72 g/m*3 7.75 C 0 km/h
417 07-05-2016 08:00:00 8.73333 C 8.26 g/m*3 8.73 C 0 km/h
418 07-05-2016 09:00:00 10.56667 C 9.24 g/m*3 10.57 C 0 km/h
419 07-05-2016 10:00:00 14.35833 C 10.49 g/m*3 14.36 C 2 km/h
420 07-05-2016 11:00:00 19.35 C 10.24 g/m*3 19.35 C 9.81667 km/h
421 07-05-2016 12:00:00 21.725 C 9.97 g/m*3 21.73 C 10.20833 km/h
422 07-05-2016 13:00:00 23.29167 C 9.26 g/m*3 23.29 C 12.49167 km/h
423 07-05-2016 14:00:00 24.525 C 8.48 g/m*3 24.53 C 11.68333 km/h
424 07-05-2016 15:00:00 25.70833 C 8 g/m*3 25.71 C 10.61667 km/h
425 07-05-2016 16:00:00 27.46667 C 7.57 g/m*3 27.47 C 8.2 km/h
Sensor: Nr:Datum:Temp:Abs-Feuchte:Windchill:Wind:
Aussen-T/F 426 07-05-2016 17:00:00 28.325 C 7.91 g/m*3 28.33 C 8.475 km/h
427 07-05-2016 18:00:00 28.1 C 7.47 g/m*3 28.1 C 8.2 km/h
428 07-05-2016 19:00:00 26.55833 C 8.2 g/m*3 26.56 C 4.00833 km/h
429 07-05-2016 20:00:00 21.35833 C 8.98 g/m*3 21.36 C 1.73333 km/h
430 07-05-2016 21:00:00 18.36667 C 8.59 g/m*3 18.37 C 1.86667 km/h
431 07-05-2016 22:00:00 16.33333 C 8.97 g/m*3 16.33 C 0.26667 km/h
432 07-05-2016 23:00:00 15.55833 C 8.61 g/m*3 15.56 C 0.93333 km/h
433 08-05-2016 00:00:00 15.41667 C 8.19 g/m*3 15.42 C 2 km/h
434 08-05-2016 01:00:00 14.875 C 7.85 g/m*3 14.88 C 2 km/h
435 08-05-2016 02:00:00 14.4 C 7.71 g/m*3 14.4 C 1.46667 km/h
436 08-05-2016 03:00:00 13.99167 C 7.61 g/m*3 13.99 C 1.73333 km/h
437 08-05-2016 04:00:00 13.16667 C 7.54 g/m*3 13.17 C 1.33333 km/h
438 08-05-2016 05:00:00 12.25 C 7.61 g/m*3 12.25 C 0.66667 km/h
439 08-05-2016 06:00:00 11.725 C 7.64 g/m*3 11.73 C 1.46667 km/h
440 08-05-2016 07:00:00 11.76667 C 7.96 g/m*3 11.77 C 1.06667 km/h
441 08-05-2016 08:00:00 12.575 C 8.5 g/m*3 12.58 C 1.86667 km/h
442 08-05-2016 09:00:00 14.25833 C 8.98 g/m*3 14.26 C 3.35 km/h
443 08-05-2016 10:00:00 17.825 C 8.71 g/m*3 17.83 C 8.05833 km/h
444 08-05-2016 11:00:00 20.55833 C 8.45 g/m*3 20.56 C 11.96667 km/h
445 08-05-2016 12:00:00 22.06667 C 7.37 g/m*3 22.07 C 14.1 km/h
446 08-05-2016 13:00:00 23.24167 C 7.1 g/m*3 23.24 C 12.49167 km/h
447 08-05-2016 14:00:00 24.025 C 7.37 g/m*3 24.03 C 13.28333 km/h
448 08-05-2016 15:00:00 25.225 C 7.6 g/m*3 25.23 C 13.83333 km/h
449 08-05-2016 16:00:00 26.20833 C 7.55 g/m*3 26.21 C 14.625 km/h
450 08-05-2016 17:00:00 26.825 C 7.37 g/m*3 26.83 C 12.625 km/h
Sensor: Nr:Datum:Temp:Abs-Feuchte:Windchill:Wind:
Aussen-T/F 451 08-05-2016 18:00:00 26.43333 C 6.96 g/m*3 26.43 C 12.75833 km/h
452 08-05-2016 19:00:00 25.61667 C 7.13 g/m*3 25.62 C 8.475 km/h
453 08-05-2016 20:00:00 22.68333 C 8.75 g/m*3 22.68 C 2.80833 km/h
454 08-05-2016 21:00:00 18.23333 C 8.49 g/m*3 18.23 C 2.4 km/h
455 08-05-2016 22:00:00 16.93333 C 8.32 g/m*3 16.93 C 2.13333 km/h
456 08-05-2016 23:00:00 16.06667 C 8.33 g/m*3 16.07 C 1.6 km/h
457 09-05-2016 00:00:00 15.15 C 8.42 g/m*3 15.15 C 1.33333 km/h
458 09-05-2016 01:00:00 14.38333 C 8.38 g/m*3 14.38 C 1.33333 km/h
459 09-05-2016 02:00:00 13.89167 C 8.27 g/m*3 13.89 C 1.33333 km/h
460 09-05-2016 03:00:00 13.64167 C 8.15 g/m*3 13.64 C 1.46667 km/h
461 09-05-2016 04:00:00 12.70833 C 8.07 g/m*3 12.71 C 1.46667 km/h
462 09-05-2016 05:00:00 12.04167 C 8.08 g/m*3 12.04 C 0.8 km/h
463 09-05-2016 06:00:00 11.39167 C 8.19 g/m*3 11.39 C 0 km/h
464 09-05-2016 07:00:00 11.025 C 8.48 g/m*3 11.03 C 0 km/h
465 09-05-2016 08:00:00 12.125 C 9.14 g/m*3 12.13 C 1.2 km/h
466 09-05-2016 09:00:00 15 C 9.61 g/m*3 15 C 9.26667 km/h
467 09-05-2016 10:00:00 18.175 C 9.71 g/m*3 18.18 C 11.15833 km/h
468 09-05-2016 11:00:00 20.36667 C 9.8 g/m*3 20.37 C 12.1 km/h
469 09-05-2016 12:00:00 21.96667 C 9.72 g/m*3 21.97 C 12.23333 km/h
470 09-05-2016 13:00:00 23.125 C 9.82 g/m*3 23.13 C 11.69167 km/h
471 09-05-2016 14:00:00 23.98333 C 9.67 g/m*3 23.98 C 11.29167 km/h
472 09-05-2016 15:00:00 25.49167 C 9.96 g/m*3 25.49 C 10.75833 km/h
473 09-05-2016 16:00:00 26.09167 C 9.32 g/m*3 26.09 C 11.00833 km/h
474 09-05-2016 17:00:00 25.725 C 9.53 g/m*3 25.73 C 6.96667 km/h
475 09-05-2016 18:00:00 24.83333 C 9.84 g/m*3 24.83 C 4.40833 km/h
Sensor: Nr:Datum:Temp:Abs-Feuchte:Windchill:Wind:
Aussen-T/F 476 09-05-2016 19:00:00 23.58333 C 11.86 g/m*3 23.58 C 0.53333 km/h
477 09-05-2016 20:00:00 20.75833 C 11.08 g/m*3 20.76 C 1.06667 km/h
478 09-05-2016 21:00:00 18.73333 C 10.32 g/m*3 18.73 C 2 km/h
479 09-05-2016 22:00:00 17.725 C 10.04 g/m*3 17.73 C 1.6 km/h
480 09-05-2016 23:00:00 16.975 C 9.68 g/m*3 16.98 C 1.46667 km/h
481 10-05-2016 00:00:00 16.56667 C 9.6 g/m*3 16.57 C 0.66667 km/h
482 10-05-2016 01:00:00 16.30833 C 9.68 g/m*3 16.31 C 0.13333 km/h
483 10-05-2016 02:00:00 16.59167 C 9.62 g/m*3 16.59 C 1.46667 km/h
484 10-05-2016 03:00:00 16.01667 C 9.68 g/m*3 16.02 C 0.13333 km/h
485 10-05-2016 04:00:00 15.25 C 9.65 g/m*3 15.25 C 0 km/h
486 10-05-2016 05:00:00 15.075 C 9.63 g/m*3 15.08 C 0 km/h
487 10-05-2016 06:00:00 14.875 C 9.67 g/m*3 14.88 C 0 km/h
488 10-05-2016 07:00:00 15.11667 C 10.08 g/m*3 15.12 C 0 km/h
489 10-05-2016 08:00:00 16.45 C 10.6 g/m*3 16.45 C 0.13333 km/h
490 10-05-2016 09:00:00 17.90833 C 10.02 g/m*3 17.91 C 4.26667 km/h
491 10-05-2016 10:00:00 19.16667 C 10.19 g/m*3 19.17 C 5.21667 km/h
492 10-05-2016 11:00:00 20.2 C 10.67 g/m*3 20.2 C 5.89167 km/h
493 10-05-2016 12:00:00 19.90833 C 12.32 g/m*3 19.91 C 3.74167 km/h
494 10-05-2016 13:00:00 18.91667 C 13.03 g/m*3 18.92 C 7.53333 km/h
495 10-05-2016 14:00:00 18.9 C 13.14 g/m*3 18.9 C 6.31667 km/h
496 10-05-2016 15:00:00 18.69167 C 13.43 g/m*3 18.69 C 4.66667 km/h
497 10-05-2016 16:00:00 18.91667 C 13.42 g/m*3 18.92 C 4 km/h
498 10-05-2016 17:00:00 18.85833 C 13.33 g/m*3 18.86 C 1.6 km/h
499 10-05-2016 18:00:00 17.825 C 13.19 g/m*3 17.83 C 1.46667 km/h
500 10-05-2016 19:00:00 18.3 C 13.15 g/m*3 18.3 C 1.86667 km/h
Sensor: Nr:Datum:Temp:Abs-Feuchte:Windchill:Wind:
Aussen-T/F 501 10-05-2016 20:00:00 16.81667 C 12.63 g/m*3 16.82 C 0 km/h
502 10-05-2016 21:00:00 15.35 C 11.91 g/m*3 15.35 C 0.13333 km/h
503 10-05-2016 22:00:00 14.31667 C 11.36 g/m*3 14.32 C 0.13333 km/h
504 10-05-2016 23:00:00 13.75 C 11.15 g/m*3 13.75 C 0 km/h
505 11-05-2016 00:00:00 13.40833 C 10.95 g/m*3 13.41 C 0 km/h
506 11-05-2016 01:00:00 12.85 C 10.66 g/m*3 12.85 C 0 km/h
507 11-05-2016 02:00:00 12.24167 C 10.29 g/m*3 12.24 C 0 km/h
508 11-05-2016 03:00:00 11.6 C 9.92 g/m*3 11.6 C 0 km/h
509 11-05-2016 04:00:00 11.7 C 10.03 g/m*3 11.7 C 0 km/h
510 11-05-2016 05:00:00 11.21667 C 9.74 g/m*3 11.22 C 0.26667 km/h
511 11-05-2016 06:00:00 11.53333 C 10.01 g/m*3 11.53 C 0 km/h
512 11-05-2016 07:00:00 12.2 C 10.47 g/m*3 12.2 C 0.4 km/h
513 11-05-2016 08:00:00 12.61667 C 10.74 g/m*3 12.62 C 1.2 km/h
514 11-05-2016 09:00:00 13.46667 C 11.32 g/m*3 13.47 C 0.53333 km/h
515 11-05-2016 10:00:00 15.60833 C 12.65 g/m*3 15.61 C 1.6 km/h
516 11-05-2016 11:00:00 18.1 C 12.94 g/m*3 18.1 C 4.29167 km/h
517 11-05-2016 12:00:00 20.63333 C 12.52 g/m*3 20.63 C 8.86667 km/h
518 11-05-2016 13:00:00 22.075 C 12.43 g/m*3 22.08 C 9.13333 km/h
519 11-05-2016 14:00:00 23.45833 C 11.29 g/m*3 23.46 C 11.29167 km/h
520 11-05-2016 15:00:00 24.34167 C 11.24 g/m*3 24.34 C 10.88333 km/h
521 11-05-2016 16:00:00 25.375 C 11.25 g/m*3 25.38 C 14.23333 km/h
522 11-05-2016 17:00:00 25.25833 C 10.59 g/m*3 25.26 C 10.75833 km/h
523 11-05-2016 18:00:00 24.98333 C 10.04 g/m*3 24.98 C 8.58333 km/h
524 11-05-2016 19:00:00 24.10833 C 9.98 g/m*3 24.11 C 5.75833 km/h
525 11-05-2016 20:00:00 21.10833 C 10.69 g/m*3 21.11 C 0.93333 km/h
Sensor: Nr:Datum:Temp:Abs-Feuchte:Windchill:Wind:
Aussen-T/F 526 11-05-2016 21:00:00 17.6 C 9.77 g/m*3 17.6 C 1.06667 km/h
527 11-05-2016 22:00:00 16.68333 C 9.82 g/m*3 16.68 C 0 km/h
528 11-05-2016 23:00:00 16.25833 C 9.95 g/m*3 16.26 C 0 km/h
529 12-05-2016 00:00:00 15.8 C 10.28 g/m*3 15.8 C 0.26667 km/h
530 12-05-2016 01:00:00 15.69167 C 10.23 g/m*3 15.69 C 0 km/h
531 12-05-2016 02:00:00 15.34167 C 10.11 g/m*3 15.34 C 0 km/h
532 12-05-2016 03:00:00 14.975 C 9.97 g/m*3 14.98 C 0.26667 km/h
533 12-05-2016 04:00:00 14.58333 C 9.88 g/m*3 14.58 C 0 km/h
534 12-05-2016 05:00:00 14.16667 C 9.72 g/m*3 14.17 C 0 km/h
535 12-05-2016 06:00:00 13.85833 C 9.74 g/m*3 13.86 C 0.26667 km/h
536 12-05-2016 07:00:00 15.525 C 9.65 g/m*3 15.53 C 5.35 km/h
537 12-05-2016 08:00:00 16.175 C 9.51 g/m*3 16.18 C 4.14167 km/h
538 12-05-2016 09:00:00 16.81667 C 9.85 g/m*3 16.82 C 4.825 km/h
539 12-05-2016 10:00:00 17.65833 C 10.01 g/m*3 17.66 C 6.71667 km/h
540 12-05-2016 11:00:00 18.225 C 10.16 g/m*3 18.23 C 9.68333 km/h
541 12-05-2016 12:00:00 18.98333 C 10.55 g/m*3 18.98 C 10.48333 km/h
542 12-05-2016 13:00:00 20.225 C 11.05 g/m*3 20.23 C 4.13333 km/h
543 12-05-2016 14:00:00 20.80833 C 11.08 g/m*3 20.81 C 5.35 km/h
544 12-05-2016 15:00:00 21.65 C 11.1 g/m*3 21.65 C 8.45833 km/h
545 12-05-2016 16:00:00 21.75 C 11.13 g/m*3 21.75 C 7.79167 km/h
546 12-05-2016 17:00:00 22.8 C 11.06 g/m*3 22.8 C 8.86667 km/h
547 12-05-2016 18:00:00 22.275 C 11.12 g/m*3 22.28 C 6.30833 km/h
548 12-05-2016 19:00:00 22.175 C 11.7 g/m*3 22.18 C 2.95 km/h
549 12-05-2016 20:00:00 19.6 C 11.76 g/m*3 19.6 C 0 km/h
550 12-05-2016 21:00:00 17.65833 C 11.36 g/m*3 17.66 C 0 km/h
Sensor: Nr:Datum:Temp:Abs-Feuchte:Windchill:Wind:
Aussen-T/F 551 12-05-2016 22:00:00 16.34167 C 11.17 g/m*3 16.34 C 0.66667 km/h
552 12-05-2016 23:00:00 15.14167 C 10.88 g/m*3 15.14 C 0.13333 km/h
553 13-05-2016 00:00:00 14.125 C 10.67 g/m*3 14.13 C 0 km/h
554 13-05-2016 01:00:00 13.025 C 10.2 g/m*3 13.03 C 0 km/h
555 13-05-2016 02:00:00 12.275 C 9.89 g/m*3 12.28 C 0 km/h
556 13-05-2016 03:00:00 11.9 C 9.8 g/m*3 11.9 C 0 km/h
557 13-05-2016 04:00:00 11.95 C 9.88 g/m*3 11.95 C 0 km/h
558 13-05-2016 05:00:00 11.33333 C 9.51 g/m*3 11.33 C 0 km/h
559 13-05-2016 06:00:00 11.36667 C 9.69 g/m*3 11.37 C 0.13333 km/h
560 13-05-2016 07:00:00 12.26667 C 10.29 g/m*3 12.27 C 0.26667 km/h
561 13-05-2016 08:00:00 13.025 C 10.77 g/m*3 13.03 C 0 km/h
562 13-05-2016 09:00:00 13.95833 C 11.21 g/m*3 13.96 C 0.4 km/h
563 13-05-2016 10:00:00 16.375 C 11.32 g/m*3 16.38 C 3.86667 km/h
564 13-05-2016 11:00:00 19.075 C 11.47 g/m*3 19.08 C 6.16667 km/h
565 13-05-2016 12:00:00 20.76667 C 11.84 g/m*3 20.77 C 5.63333 km/h
566 13-05-2016 13:00:00 17.08333 C 11.85 g/m*3 17.08 C 5.61667 km/h
567 13-05-2016 14:00:00 13.91667 C 11.13 g/m*3 13.92 C 1.6 km/h
568 13-05-2016 15:00:00 13.26667 C 10.9 g/m*3 13.27 C 2.14167 km/h
569 13-05-2016 16:00:00 14.04167 C 11.58 g/m*3 14.04 C 0.66667 km/h
570 13-05-2016 17:00:00 15.19167 C 12.38 g/m*3 15.19 C 0.26667 km/h
571 13-05-2016 18:00:00 16.58333 C 12.55 g/m*3 16.58 C 3.075 km/h
572 13-05-2016 19:00:00 18.075 C 13.45 g/m*3 18.08 C 0.26667 km/h
573 13-05-2016 20:00:00 15.80833 C 12.11 g/m*3 15.81 C 0.8 km/h
574 13-05-2016 21:00:00 13.55 C 10.89 g/m*3 13.55 C 0.66667 km/h
575 13-05-2016 22:00:00 12.8 C 10.59 g/m*3 12.8 C 0 km/h
Sensor: Nr:Datum:Temp:Abs-Feuchte:Windchill:Wind:
Aussen-T/F 576 13-05-2016 23:00:00 11.85833 C 10.04 g/m*3 11.86 C 0 km/h
577 14-05-2016 00:00:00 11.28333 C 9.76 g/m*3 11.28 C 1.06667 km/h
578 14-05-2016 01:00:00 10.69167 C 9.42 g/m*3 10.69 C 0.4 km/h
579 14-05-2016 02:00:00 10.56667 C 9.35 g/m*3 10.57 C 1.86667 km/h
580 14-05-2016 03:00:00 10.24167 C 8.87 g/m*3 10.24 C 2.93333 km/h
581 14-05-2016 04:00:00 9.98333 C 8.13 g/m*3 9.27 C 6.71667 km/h
582 14-05-2016 05:00:00 9.56667 C 7.84 g/m*3 8.76 C 6.85833 km/h
583 14-05-2016 06:00:00 9.30833 C 7.67 g/m*3 8.27 C 7.65 km/h
584 14-05-2016 07:00:00 9.19167 C 7.36 g/m*3 7.7 C 9.80833 km/h
585 14-05-2016 08:00:00 9.09167 C 7.37 g/m*3 7.73 C 9.01667 km/h
586 14-05-2016 09:00:00 9.33333 C 6.98 g/m*3 7.12 C 14.76667 km/h
587 14-05-2016 10:00:00 9.81667 C 6.29 g/m*3 7.84 C 13.83333 km/h
588 14-05-2016 11:00:00 10.75 C 5.89 g/m*3 8.66 C 16.63333 km/h
589 14-05-2016 12:00:00 11.23333 C 5.84 g/m*3 11.23 C 18.5 km/h
590 14-05-2016 13:00:00 11.54167 C 6 g/m*3 11.54 C 14.23333 km/h
591 14-05-2016 14:00:00 11.20833 C 6.36 g/m*3 11.21 C 12.1 km/h
592 14-05-2016 15:00:00 12.31667 C 6.18 g/m*3 12.32 C 12.23333 km/h
593 14-05-2016 16:00:00 12.35 C 6.07 g/m*3 12.35 C 11.15833 km/h
594 14-05-2016 17:00:00 12.325 C 5.85 g/m*3 12.33 C 12.9 km/h
595 14-05-2016 18:00:00 12.275 C 5.82 g/m*3 12.28 C 14.36667 km/h
596 14-05-2016 19:00:00 11.33333 C 5.88 g/m*3 11.33 C 11.7 km/h
597 14-05-2016 20:00:00 10.925 C 5.84 g/m*3 9.31 C 12.9 km/h
598 14-05-2016 21:00:00 9.6 C 5.82 g/m*3 8.47 C 8.30833 km/h
599 14-05-2016 22:00:00 8.39167 C 5.88 g/m*3 7.82 C 5.35 km/h
600 14-05-2016 23:00:00 7.70833 C 5.75 g/m*3 6.67 C 6.58333 km/h
Sensor: Nr:Datum:Temp:Abs-Feuchte:Windchill:Wind:
Aussen-T/F 601 15-05-2016 00:00:00 7.2 C 5.74 g/m*3 6.12 C 6.45 km/h
602 15-05-2016 01:00:00 7.15833 C 5.79 g/m*3 5.82 C 7.38333 km/h
603 15-05-2016 02:00:00 7.1 C 5.91 g/m*3 5.43 C 8.74167 km/h
604 15-05-2016 03:00:00 6.78333 C 5.91 g/m*3 5.25 C 7.925 km/h
605 15-05-2016 04:00:00 6.41667 C 5.97 g/m*3 6.42 C 3.06667 km/h
606 15-05-2016 05:00:00 6.3 C 5.95 g/m*3 5.47 C 5.23333 km/h
607 15-05-2016 06:00:00 6.24167 C 6.08 g/m*3 6.24 C 2.4 km/h
608 15-05-2016 07:00:00 6.28333 C 6.11 g/m*3 5.51 C 5.075 km/h
609 15-05-2016 08:00:00 7.39167 C 6.27 g/m*3 5.4 C 10.59167 km/h
610 15-05-2016 09:00:00 8.725 C 6.32 g/m*3 6.56 C 13.43333 km/h
611 15-05-2016 10:00:00 9.64167 C 6.19 g/m*3 7.71 C 13.16667 km/h
612 15-05-2016 11:00:00 10.21667 C 6.07 g/m*3 8.45 C 12.9 km/h
613 15-05-2016 12:00:00 8.79167 C 6.98 g/m*3 8.19 C 5.61667 km/h
614 15-05-2016 13:00:00 10.34167 C 6.31 g/m*3 8.38 C 14.625 km/h
615 15-05-2016 14:00:00 11.19167 C 5.8 g/m*3 11.19 C 10.34167 km/h
616 15-05-2016 15:00:00 11.78333 C 5.85 g/m*3 11.78 C 11.69167 km/h
617 15-05-2016 16:00:00 12.56667 C 6.06 g/m*3 12.57 C 9.53333 km/h
618 15-05-2016 17:00:00 11.99167 C 5.94 g/m*3 11.99 C 10.36667 km/h
619 15-05-2016 18:00:00 11.68333 C 6.39 g/m*3 11.68 C 8.33333 km/h
620 15-05-2016 19:00:00 11.675 C 5.88 g/m*3 11.68 C 16.23333 km/h
621 15-05-2016 20:00:00 10.85 C 6.05 g/m*3 9.33 C 12.1 km/h
622 15-05-2016 21:00:00 9.975 C 6.38 g/m*3 9.98 C 4.575 km/h
623 15-05-2016 22:00:00 8.86667 C 6.67 g/m*3 8.87 C 0.26667 km/h
624 15-05-2016 23:00:00 8.68333 C 6.84 g/m*3 8.68 C 1.2 km/h
625 16-05-2016 00:00:00 8.2 C 6.77 g/m*3 8.2 C 0.8 km/h
Sensor: Nr:Datum:Temp:Abs-Feuchte:Windchill:Wind:
Aussen-T/F 626 16-05-2016 01:00:00 8.20833 C 6.79 g/m*3 8.21 C 2 km/h
627 16-05-2016 02:00:00 8.16667 C 6.79 g/m*3 8.17 C 2 km/h
628 16-05-2016 03:00:00 7.925 C 6.93 g/m*3 7.93 C 0.4 km/h
629 16-05-2016 04:00:00 7.725 C 7 g/m*3 7.73 C 0.4 km/h
630 16-05-2016 05:00:00 7.675 C 7.09 g/m*3 7.68 C 0 km/h
631 16-05-2016 06:00:00 7.55 C 7.03 g/m*3 7.55 C 0.53333 km/h
632 16-05-2016 07:00:00 7.98333 C 6.69 g/m*3 7.98 C 4.41667 km/h
633 16-05-2016 08:00:00 8.26667 C 6.58 g/m*3 7.67 C 5.35 km/h
634 16-05-2016 09:00:00 8.56667 C 6.6 g/m*3 7.89 C 5.75833 km/h
635 16-05-2016 10:00:00 9.61667 C 6.82 g/m*3 9.17 C 5.49167 km/h
636 16-05-2016 11:00:00 11.10833 C 6.32 g/m*3 11.11 C 11.425 km/h
637 16-05-2016 12:00:00 11.56667 C 6.09 g/m*3 11.57 C 12.63333 km/h
638 16-05-2016 13:00:00 11.65 C 6.05 g/m*3 11.65 C 12.36667 km/h
639 16-05-2016 14:00:00 11.65 C 6.16 g/m*3 11.65 C 11.55833 km/h
640 16-05-2016 15:00:00 12.25833 C 6.23 g/m*3 12.26 C 10.99167 km/h
641 16-05-2016 16:00:00 12.95 C 6.07 g/m*3 12.95 C 10.49167 km/h
642 16-05-2016 17:00:00 13.30833 C 5.93 g/m*3 13.31 C 6.84167 km/h
643 16-05-2016 18:00:00 12.98333 C 5.63 g/m*3 12.98 C 6.84167 km/h
644 16-05-2016 19:00:00 12.19167 C 5.99 g/m*3 12.19 C 5.35 km/h
645 16-05-2016 20:00:00 11.75833 C 6.35 g/m*3 11.76 C 4.025 km/h
646 16-05-2016 21:00:00 10.10833 C 6.76 g/m*3 10.11 C 0.53333 km/h
647 16-05-2016 22:00:00 9.425 C 6.79 g/m*3 9.43 C 0 km/h
648 16-05-2016 23:00:00 8.875 C 6.97 g/m*3 8.88 C 0 km/h
649 17-05-2016 00:00:00 8.55 C 7.07 g/m*3 8.55 C 0 km/h
650 17-05-2016 01:00:00 8.1 C 6.98 g/m*3 8.1 C 0 km/h
Sensor: Nr:Datum:Temp:Abs-Feuchte:Windchill:Wind:
Aussen-T/F 651 17-05-2016 02:00:00 7.825 C 6.96 g/m*3 7.83 C 0.53333 km/h
652 17-05-2016 03:00:00 7.76667 C 7.04 g/m*3 7.77 C 1.2 km/h
653 17-05-2016 04:00:00 7.66667 C 7.09 g/m*3 7.67 C 1.06667 km/h
654 17-05-2016 05:00:00 7.66667 C 6.99 g/m*3 7.67 C 1.60833 km/h
655 17-05-2016 06:00:00 7.81667 C 7.04 g/m*3 7.82 C 1.06667 km/h
656 17-05-2016 07:00:00 8.46667 C 7.14 g/m*3 7.99 C 5.09167 km/h
657 17-05-2016 08:00:00 9.575 C 7.27 g/m*3 8.2 C 9.55 km/h
658 17-05-2016 09:00:00 11.09167 C 7.35 g/m*3 11.09 C 8.88333 km/h
659 17-05-2016 10:00:00 12.45 C 7.38 g/m*3 12.45 C 8.75 km/h
660 17-05-2016 11:00:00 14.025 C 7.24 g/m*3 14.03 C 10.76667 km/h
661 17-05-2016 12:00:00 15.09167 C 6.84 g/m*3 15.09 C 6.16667 km/h
662 17-05-2016 13:00:00 15.78333 C 6.63 g/m*3 15.78 C 9.00833 km/h
663 17-05-2016 14:00:00 17.00833 C 6.5 g/m*3 17.01 C 11.03333 km/h
664 17-05-2016 15:00:00 17.01667 C 6.64 g/m*3 17.02 C 12.36667 km/h
665 17-05-2016 16:00:00 17.475 C 7.06 g/m*3 17.48 C 9.41667 km/h
666 17-05-2016 17:00:00 16.675 C 7.21 g/m*3 16.68 C 10.61667 km/h
667 17-05-2016 18:00:00 16.63333 C 7.64 g/m*3 16.63 C 7.11667 km/h
668 17-05-2016 19:00:00 15.90833 C 8.39 g/m*3 15.91 C 1.46667 km/h
669 17-05-2016 20:00:00 14.60833 C 8.34 g/m*3 14.61 C 1.86667 km/h
670 17-05-2016 21:00:00 13.61667 C 8.33 g/m*3 13.62 C 0.4 km/h
671 17-05-2016 22:00:00 12.78333 C 8.21 g/m*3 12.78 C 0 km/h
672 17-05-2016 23:00:00 11.975 C 8.15 g/m*3 11.98 C 0.26667 km/h
673 18-05-2016 00:00:00 11.8 C 8.19 g/m*3 11.8 C 0.53333 km/h
674 18-05-2016 01:00:00 11.45833 C 8.2 g/m*3 11.46 C 0 km/h
675 18-05-2016 02:00:00 11.06667 C 8.24 g/m*3 11.07 C 0 km/h
Sensor: Nr:Datum:Temp:Abs-Feuchte:Windchill:Wind:
Aussen-T/F 676 18-05-2016 03:00:00 10.875 C 8.33 g/m*3 10.88 C 0 km/h
677 18-05-2016 04:00:00 10.89167 C 8.28 g/m*3 10.89 C 0 km/h
678 18-05-2016 05:00:00 11.10833 C 8.34 g/m*3 11.11 C 0 km/h
679 18-05-2016 06:00:00 11.14167 C 8.42 g/m*3 11.14 C 0 km/h
680 18-05-2016 07:00:00 11.43333 C 8.67 g/m*3 11.43 C 0.93333 km/h
681 18-05-2016 08:00:00 12.66667 C 9 g/m*3 12.67 C 4.13333 km/h
682 18-05-2016 09:00:00 14.075 C 9.42 g/m*3 14.08 C 4 km/h
683 18-05-2016 10:00:00 15.8 C 9.68 g/m*3 15.8 C 6.025 km/h
684 18-05-2016 11:00:00 16.8 C 9.27 g/m*3 16.8 C 9.81667 km/h
685 18-05-2016 12:00:00 17.425 C 9.12 g/m*3 17.43 C 5.75833 km/h
686 18-05-2016 13:00:00 18.325 C 9.02 g/m*3 18.33 C 6.7 km/h
687 18-05-2016 14:00:00 18.84167 C 8.65 g/m*3 18.84 C 5.75 km/h
688 18-05-2016 15:00:00 18.71667 C 9.13 g/m*3 18.72 C 4.68333 km/h
689 18-05-2016 16:00:00 19.43333 C 8.67 g/m*3 19.43 C 6.03333 km/h
690 18-05-2016 17:00:00 19.075 C 9.04 g/m*3 19.08 C 2.80833 km/h
691 18-05-2016 18:00:00 18.34167 C 10.4 g/m*3 18.34 C 0.66667 km/h
692 18-05-2016 19:00:00 16.61667 C 9.97 g/m*3 16.62 C 0.13333 km/h
693 18-05-2016 20:00:00 14.84167 C 10.04 g/m*3 14.84 C 1.875 km/h
694 18-05-2016 21:00:00 12.975 C 10.15 g/m*3 12.98 C 0.26667 km/h
695 18-05-2016 22:00:00 12 C 9.72 g/m*3 12 C 0 km/h
696 18-05-2016 23:00:00 11.7 C 9.69 g/m*3 11.7 C 0 km/h
697 19-05-2016 00:00:00 11.66667 C 9.72 g/m*3 11.67 C 0 km/h
698 19-05-2016 01:00:00 11.20833 C 9.53 g/m*3 11.21 C 0 km/h
699 19-05-2016 02:00:00 11.35 C 9.71 g/m*3 11.35 C 0 km/h
700 19-05-2016 03:00:00 11.29167 C 9.58 g/m*3 11.29 C 1.6 km/h
Sensor: Nr:Datum:Temp:Abs-Feuchte:Windchill:Wind:
Aussen-T/F 701 19-05-2016 04:00:00 10.95 C 9.28 g/m*3 10.95 C 0.26667 km/h
702 19-05-2016 05:00:00 10.81667 C 9.19 g/m*3 10.82 C 0.13333 km/h
703 19-05-2016 06:00:00 10.93333 C 9.38 g/m*3 10.93 C 0 km/h
704 19-05-2016 07:00:00 11.33333 C 9.6 g/m*3 11.33 C 3.21667 km/h
705 19-05-2016 08:00:00 11.65 C 9.55 g/m*3 11.65 C 3.06667 km/h
706 19-05-2016 09:00:00 12.45833 C 9.18 g/m*3 12.46 C 9.26667 km/h
707 19-05-2016 10:00:00 13.73333 C 8.91 g/m*3 13.73 C 10.76667 km/h
708 19-05-2016 11:00:00 14.61667 C 8.7 g/m*3 14.62 C 11.16667 km/h
709 19-05-2016 12:00:00 15.50833 C 8.49 g/m*3 15.51 C 9.40833 km/h
710 19-05-2016 13:00:00 16.40833 C 8.38 g/m*3 16.41 C 6.975 km/h
711 19-05-2016 14:00:00 17.33333 C 8.33 g/m*3 17.33 C 5.21667 km/h
712 19-05-2016 15:00:00 17.575 C 8.26 g/m*3 17.58 C 3.89167 km/h
713 19-05-2016 16:00:00 18.61667 C 8.18 g/m*3 18.62 C 5.33333 km/h
714 19-05-2016 17:00:00 18.73333 C 8.21 g/m*3 18.73 C 3.475 km/h
715 19-05-2016 18:00:00 19.21667 C 8.31 g/m*3 19.22 C 2.66667 km/h
716 19-05-2016 19:00:00 19.5 C 8.49 g/m*3 19.5 C 3.73333 km/h
717 19-05-2016 20:00:00 15.425 C 8.91 g/m*3 15.43 C 0.53333 km/h
718 19-05-2016 21:00:00 13.31667 C 8.7 g/m*3 13.32 C 0.4 km/h
719 19-05-2016 22:00:00 12.11667 C 8.61 g/m*3 12.12 C 0.13333 km/h
720 19-05-2016 23:00:00 11.375 C 8.58 g/m*3 11.38 C 0.66667 km/h

Maximal/Minimal-Werte vom 20.04.2016 - 19.05.2016

Sensor Min Max Avg
Temp
(Aussen-T/F)
0.9 °C
25-04-2016  04:35:00
28.9 °C
07-05-2016  17:40:00
11.46 °C
Abs-Feuchte
(Aussen-T/F)
4.37 g/m*3
20-04-2016  17:00:00
13.45 g/m*3
13-05-2016  19:00:00
7.38 g/m*3
Windchill
(Aussen-T/F)
-0.95 C
25-04-2016  07:00:00
28.33 C
07-05-2016  17:00:00
11.04 C

Die Daten stammen von einer Davis Vantage Pro 2 Wetter-Station und werden unter Linux mit der Software wview2wettercgi und aufbereitet. Alle Angaben erfolgen ohne Gewähr für ihre Vollständigkeit oder Richtigkeit.
Kontakt: Rainer Krienke krienke@uni-koblenz.de . Meine Webseiten an der Uni Koblenz oder privat.
Version: $Revision: 0.78 $